Terminal Aerodrome Forecast
Issued by NWS Cleveland, OH

Home | Current Version | Previous Version | Graphics & Text | Print | Product List | Glossary On
Versions: 1 2 3 4 5 6 7 8 9 10 11 12 13 14 15 16 17 18 19 20 21 22 23 24
263
FTUS41 KCLE 161740
TAFCLE
TAF
KCLE 161740Z 1618/1724 22007KT P6SM OVC025
     FM161900 22007KT P6SM SCT025
     FM171100 23006KT P6SM BKN015
     FM171400 23007KT P6SM SCT030
     FM172000 25011KT P6SM BKN100=

USA.gov is the U.S. government's official web portal to all federal, state and local government web resources and services.